sensor_id;sensor_type;location;lat;lon;timestamp;P1;durP1;ratioP1;P2;durP2;ratioP2
38479;SDS011;62333;51.980;5.934;2023-11-19T00:02:13;8.23;;;7.15;;
38479;SDS011;62333;51.980;5.934;2023-11-19T00:04:39;10.27;;;7.82;;
38479;SDS011;62333;51.980;5.934;2023-11-19T00:07:05;11.93;;;9.50;;
38479;SDS011;62333;51.980;5.934;2023-11-19T00:09:32;10.20;;;8.55;;
38479;SDS011;62333;51.980;5.934;2023-11-19T00:11:58;10.85;;;8.57;;
38479;SDS011;62333;51.980;5.934;2023-11-19T00:14:25;14.63;;;9.32;;
38479;SDS011;62333;51.980;5.934;2023-11-19T00:16:51;10.57;;;8.85;;
38479;SDS011;62333;51.980;5.934;2023-11-19T00:19:18;12.02;;;7.32;;
38479;SDS011;62333;51.980;5.934;2023-11-19T00:21:44;11.63;;;9.23;;
38479;SDS011;62333;51.980;5.934;2023-11-19T00:24:11;12.98;;;8.55;;
38479;SDS011;62333;51.980;5.934;2023-11-19T00:26:37;9.00;;;7.45;;
38479;SDS011;62333;51.980;5.934;2023-11-19T00:29:06;9.13;;;7.00;;
38479;SDS011;62333;51.980;5.934;2023-11-19T00:31:32;11.38;;;8.10;;
38479;SDS011;62333;51.980;5.934;2023-11-19T00:33:58;26.40;;;9.85;;
38479;SDS011;62333;51.980;5.934;2023-11-19T00:36:23;11.30;;;8.45;;
38479;SDS011;62333;51.980;5.934;2023-11-19T00:38:50;12.85;;;8.15;;
38479;SDS011;62333;51.980;5.934;2023-11-19T00:41:17;14.10;;;9.23;;
38479;SDS011;62333;51.980;5.934;2023-11-19T00:43:43;12.63;;;8.48;;
38479;SDS011;62333;51.980;5.934;2023-11-19T00:46:09;12.52;;;7.22;;
38479;SDS011;62333;51.980;5.934;2023-11-19T00:48:36;14.98;;;10.02;;
38479;SDS011;62333;51.980;5.934;2023-11-19T00:51:02;14.65;;;6.95;;
38479;SDS011;62333;51.980;5.934;2023-11-19T00:53:29;9.57;;;5.85;;
38479;SDS011;62333;51.980;5.934;2023-11-19T00:55:55;16.83;;;5.70;;
38479;SDS011;62333;51.980;5.934;2023-11-19T00:58:20;13.20;;;6.38;;
38479;SDS011;62333;51.980;5.934;2023-11-19T01:00:46;10.52;;;4.95;;
38479;SDS011;62333;51.980;5.934;2023-11-19T01:03:12;16.80;;;4.65;;
38479;SDS011;62333;51.980;5.934;2023-11-19T01:05:39;12.63;;;5.10;;
38479;SDS011;62333;51.980;5.934;2023-11-19T01:08:05;13.13;;;4.93;;
38479;SDS011;62333;51.980;5.934;2023-11-19T01:10:31;18.90;;;5.82;;
38479;SDS011;62333;51.980;5.934;2023-11-19T01:12:57;11.93;;;4.22;;
38479;SDS011;62333;51.980;5.934;2023-11-19T01:15:22;15.20;;;4.75;;
38479;SDS011;62333;51.980;5.934;2023-11-19T01:17:48;10.93;;;4.15;;
38479;SDS011;62333;51.980;5.934;2023-11-19T01:20:14;9.02;;;3.13;;
38479;SDS011;62333;51.980;5.934;2023-11-19T01:22:40;15.00;;;4.15;;
38479;SDS011;62333;51.980;5.934;2023-11-19T01:25:06;15.45;;;4.15;;
38479;SDS011;62333;51.980;5.934;2023-11-19T01:27:32;12.10;;;3.25;;
38479;SDS011;62333;51.980;5.934;2023-11-19T01:30:02;10.05;;;2.45;;
38479;SDS011;62333;51.980;5.934;2023-11-19T01:32:31;15.75;;;4.13;;
38479;SDS011;62333;51.980;5.934;2023-11-19T01:34:57;13.20;;;2.83;;
38479;SDS011;62333;51.980;5.934;2023-11-19T01:37:23;13.18;;;3.75;;
38479;SDS011;62333;51.980;5.934;2023-11-19T01:39:48;21.20;;;3.92;;
38479;SDS011;62333;51.980;5.934;2023-11-19T01:42:14;8.63;;;2.80;;
38479;SDS011;62333;51.980;5.934;2023-11-19T01:44:40;15.27;;;2.53;;
38479;SDS011;62333;51.980;5.934;2023-11-19T01:47:06;15.02;;;2.67;;
38479;SDS011;62333;51.980;5.934;2023-11-19T01:49:33;13.63;;;2.40;;
38479;SDS011;62333;51.980;5.934;2023-11-19T01:51:59;17.50;;;2.95;;
38479;SDS011;62333;51.980;5.934;2023-11-19T01:54:25;13.00;;;2.75;;
38479;SDS011;62333;51.980;5.934;2023-11-19T01:56:53;15.45;;;2.53;;
38479;SDS011;62333;51.980;5.934;2023-11-19T01:59:21;16.23;;;3.00;;
38479;SDS011;62333;51.980;5.934;2023-11-19T02:01:51;15.07;;;3.47;;
38479;SDS011;62333;51.980;5.934;2023-11-19T02:04:20;14.85;;;3.25;;
38479;SDS011;62333;51.980;5.934;2023-11-19T02:06:47;20.55;;;3.40;;
38479;SDS011;62333;51.980;5.934;2023-11-19T02:09:14;14.07;;;3.10;;
38479;SDS011;62333;51.980;5.934;2023-11-19T02:11:44;18.42;;;2.90;;
38479;SDS011;62333;51.980;5.934;2023-11-19T02:14:13;14.00;;;3.80;;
38479;SDS011;62333;51.980;5.934;2023-11-19T02:16:39;18.10;;;3.05;;
38479;SDS011;62333;51.980;5.934;2023-11-19T02:19:04;14.90;;;3.03;;
38479;SDS011;62333;51.980;5.934;2023-11-19T02:21:31;12.02;;;2.13;;
38479;SDS011;62333;51.980;5.934;2023-11-19T02:23:57;13.70;;;2.83;;
38479;SDS011;62333;51.980;5.934;2023-11-19T02:26:28;18.00;;;3.50;;
38479;SDS011;62333;51.980;5.934;2023-11-19T02:28:58;17.25;;;3.08;;
38479;SDS011;62333;51.980;5.934;2023-11-19T02:31:24;21.20;;;3.47;;
38479;SDS011;62333;51.980;5.934;2023-11-19T02:33:50;22.75;;;3.58;;
38479;SDS011;62333;51.980;5.934;2023-11-19T02:36:15;16.42;;;3.58;;
38479;SDS011;62333;51.980;5.934;2023-11-19T02:38:41;23.45;;;4.80;;
38479;SDS011;62333;51.980;5.934;2023-11-19T02:41:07;14.93;;;2.95;;
38479;SDS011;62333;51.980;5.934;2023-11-19T02:43:35;17.38;;;4.15;;
38479;SDS011;62333;51.980;5.934;2023-11-19T02:46:02;14.93;;;3.75;;
38479;SDS011;62333;51.980;5.934;2023-11-19T02:48:32;14.70;;;2.28;;
38479;SDS011;62333;51.980;5.934;2023-11-19T02:50:58;20.50;;;3.90;;
38479;SDS011;62333;51.980;5.934;2023-11-19T02:53:24;25.48;;;5.55;;
38479;SDS011;62333;51.980;5.934;2023-11-19T02:55:52;15.02;;;2.78;;
38479;SDS011;62333;51.980;5.934;2023-11-19T02:58:18;23.20;;;2.88;;
38479;SDS011;62333;51.980;5.934;2023-11-19T03:00:48;26.98;;;4.35;;
38479;SDS011;62333;51.980;5.934;2023-11-19T03:03:22;26.20;;;4.65;;
38479;SDS011;62333;51.980;5.934;2023-11-19T03:05:53;21.77;;;2.78;;
38479;SDS011;62333;51.980;5.934;2023-11-19T03:08:20;18.42;;;3.67;;
38479;SDS011;62333;51.980;5.934;2023-11-19T03:10:46;17.65;;;4.10;;
38479;SDS011;62333;51.980;5.934;2023-11-19T03:13:12;24.83;;;5.13;;
38479;SDS011;62333;51.980;5.934;2023-11-19T03:15:42;21.65;;;3.63;;
38479;SDS011;62333;51.980;5.934;2023-11-19T03:18:08;25.92;;;3.65;;
38479;SDS011;62333;51.980;5.934;2023-11-19T03:20:34;27.00;;;6.82;;
38479;SDS011;62333;51.980;5.934;2023-11-19T03:22:59;26.90;;;4.97;;
38479;SDS011;62333;51.980;5.934;2023-11-19T03:25:26;28.50;;;5.45;;
38479;SDS011;62333;51.980;5.934;2023-11-19T03:27:58;25.63;;;4.57;;
38479;SDS011;62333;51.980;5.934;2023-11-19T03:30:27;32.28;;;6.28;;
38479;SDS011;62333;51.980;5.934;2023-11-19T03:32:54;27.75;;;5.22;;
38479;SDS011;62333;51.980;5.934;2023-11-19T03:35:20;32.33;;;5.75;;
38479;SDS011;62333;51.980;5.934;2023-11-19T03:37:46;29.63;;;6.63;;
38479;SDS011;62333;51.980;5.934;2023-11-19T03:40:12;26.88;;;4.07;;
38479;SDS011;62333;51.980;5.934;2023-11-19T03:42:38;39.70;;;6.05;;
38479;SDS011;62333;51.980;5.934;2023-11-19T03:45:05;31.55;;;5.50;;
38479;SDS011;62333;51.980;5.934;2023-11-19T03:47:33;28.38;;;5.15;;
38479;SDS011;62333;51.980;5.934;2023-11-19T03:50:00;21.92;;;4.57;;
38479;SDS011;62333;51.980;5.934;2023-11-19T03:52:26;39.55;;;5.88;;
38479;SDS011;62333;51.980;5.934;2023-11-19T03:54:52;28.63;;;5.65;;
38479;SDS011;62333;51.980;5.934;2023-11-19T03:57:20;33.55;;;6.40;;
38479;SDS011;62333;51.980;5.934;2023-11-19T03:59:46;37.58;;;6.22;;
38479;SDS011;62333;51.980;5.934;2023-11-19T04:02:11;25.90;;;4.82;;
38479;SDS011;62333;51.980;5.934;2023-11-19T04:04:37;30.20;;;9.48;;
38479;SDS011;62333;51.980;5.934;2023-11-19T04:07:04;30.23;;;4.97;;
38479;SDS011;62333;51.980;5.934;2023-11-19T04:09:30;35.95;;;7.18;;
38479;SDS011;62333;51.980;5.934;2023-11-19T04:11:58;35.90;;;5.85;;
38479;SDS011;62333;51.980;5.934;2023-11-19T04:14:24;26.08;;;5.65;;
38479;SDS011;62333;51.980;5.934;2023-11-19T04:16:50;23.08;;;4.68;;
38479;SDS011;62333;51.980;5.934;2023-11-19T04:19:16;30.02;;;5.10;;
38479;SDS011;62333;51.980;5.934;2023-11-19T04:21:42;27.17;;;5.18;;
38479;SDS011;62333;51.980;5.934;2023-11-19T04:24:08;29.88;;;5.50;;
38479;SDS011;62333;51.980;5.934;2023-11-19T04:26:40;26.30;;;5.07;;
38479;SDS011;62333;51.980;5.934;2023-11-19T04:29:11;40.38;;;7.05;;
38479;SDS011;62333;51.980;5.934;2023-11-19T04:31:37;24.45;;;4.57;;
38479;SDS011;62333;51.980;5.934;2023-11-19T04:34:03;30.83;;;7.50;;
38479;SDS011;62333;51.980;5.934;2023-11-19T04:36:29;28.08;;;4.07;;
38479;SDS011;62333;51.980;5.934;2023-11-19T04:38:54;28.60;;;4.13;;
38479;SDS011;62333;51.980;5.934;2023-11-19T04:41:20;22.92;;;6.70;;
38479;SDS011;62333;51.980;5.934;2023-11-19T04:43:46;30.50;;;6.60;;
38479;SDS011;62333;51.980;5.934;2023-11-19T04:46:12;25.63;;;4.60;;
38479;SDS011;62333;51.980;5.934;2023-11-19T04:48:37;27.13;;;4.55;;
38479;SDS011;62333;51.980;5.934;2023-11-19T04:51:06;26.35;;;5.63;;
38479;SDS011;62333;51.980;5.934;2023-11-19T04:53:34;33.53;;;6.25;;
38479;SDS011;62333;51.980;5.934;2023-11-19T04:56:00;30.23;;;4.90;;
38479;SDS011;62333;51.980;5.934;2023-11-19T04:58:26;28.08;;;4.95;;
38479;SDS011;62333;51.980;5.934;2023-11-19T05:00:54;40.05;;;8.20;;
38479;SDS011;62333;51.980;5.934;2023-11-19T05:03:20;22.98;;;5.28;;
38479;SDS011;62333;51.980;5.934;2023-11-19T05:05:47;26.77;;;6.95;;
38479;SDS011;62333;51.980;5.934;2023-11-19T05:08:13;34.72;;;7.50;;
38479;SDS011;62333;51.980;5.934;2023-11-19T05:10:39;24.08;;;5.57;;
38479;SDS011;62333;51.980;5.934;2023-11-19T05:13:05;33.30;;;5.15;;
38479;SDS011;62333;51.980;5.934;2023-11-19T05:15:31;43.90;;;8.65;;
38479;SDS011;62333;51.980;5.934;2023-11-19T05:17:56;32.15;;;7.60;;
38479;SDS011;62333;51.980;5.934;2023-11-19T05:20:22;29.10;;;5.85;;
38479;SDS011;62333;51.980;5.934;2023-11-19T05:22:47;29.60;;;5.90;;
38479;SDS011;62333;51.980;5.934;2023-11-19T05:25:14;27.55;;;5.38;;
38479;SDS011;62333;51.980;5.934;2023-11-19T05:27:39;26.92;;;5.38;;
38479;SDS011;62333;51.980;5.934;2023-11-19T05:30:05;28.13;;;4.85;;
38479;SDS011;62333;51.980;5.934;2023-11-19T05:32:35;29.35;;;4.75;;
38479;SDS011;62333;51.980;5.934;2023-11-19T05:35:01;28.60;;;6.03;;
38479;SDS011;62333;51.980;5.934;2023-11-19T05:37:27;19.42;;;4.45;;
38479;SDS011;62333;51.980;5.934;2023-11-19T05:39:53;27.52;;;5.22;;
38479;SDS011;62333;51.980;5.934;2023-11-19T05:42:18;23.70;;;4.15;;
38479;SDS011;62333;51.980;5.934;2023-11-19T05:44:44;24.45;;;6.07;;
38479;SDS011;62333;51.980;5.934;2023-11-19T05:47:10;35.05;;;6.60;;
38479;SDS011;62333;51.980;5.934;2023-11-19T05:49:36;32.17;;;5.72;;
38479;SDS011;62333;51.980;5.934;2023-11-19T05:52:02;30.83;;;5.60;;
38479;SDS011;62333;51.980;5.934;2023-11-19T05:54:28;34.15;;;7.65;;
38479;SDS011;62333;51.980;5.934;2023-11-19T05:56:54;25.42;;;5.43;;
38479;SDS011;62333;51.980;5.934;2023-11-19T05:59:20;27.85;;;4.68;;
38479;SDS011;62333;51.980;5.934;2023-11-19T06:01:48;35.70;;;6.35;;
38479;SDS011;62333;51.980;5.934;2023-11-19T06:04:13;26.35;;;4.32;;
38479;SDS011;62333;51.980;5.934;2023-11-19T06:06:39;25.02;;;5.45;;
38479;SDS011;62333;51.980;5.934;2023-11-19T06:09:05;41.78;;;6.65;;
38479;SDS011;62333;51.980;5.934;2023-11-19T06:11:32;32.13;;;6.30;;
38479;SDS011;62333;51.980;5.934;2023-11-19T06:13:59;25.88;;;3.92;;
38479;SDS011;62333;51.980;5.934;2023-11-19T06:16:24;25.98;;;5.32;;
38479;SDS011;62333;51.980;5.934;2023-11-19T06:18:50;24.55;;;6.35;;
38479;SDS011;62333;51.980;5.934;2023-11-19T06:21:16;22.73;;;5.38;;
38479;SDS011;62333;51.980;5.934;2023-11-19T06:23:41;30.95;;;5.65;;
38479;SDS011;62333;51.980;5.934;2023-11-19T06:26:07;27.10;;;6.55;;
38479;SDS011;62333;51.980;5.934;2023-11-19T06:28:33;29.77;;;5.78;;
38479;SDS011;62333;51.980;5.934;2023-11-19T06:30:59;29.67;;;6.32;;
38479;SDS011;62333;51.980;5.934;2023-11-19T06:33:25;26.00;;;5.68;;
38479;SDS011;62333;51.980;5.934;2023-11-19T06:35:52;28.00;;;4.55;;
38479;SDS011;62333;51.980;5.934;2023-11-19T06:38:17;34.95;;;6.13;;
38479;SDS011;62333;51.980;5.934;2023-11-19T06:40:43;30.23;;;5.97;;
38479;SDS011;62333;51.980;5.934;2023-11-19T06:43:09;33.35;;;6.10;;
38479;SDS011;62333;51.980;5.934;2023-11-19T06:45:35;26.17;;;5.32;;
38479;SDS011;62333;51.980;5.934;2023-11-19T06:48:02;27.92;;;4.93;;
38479;SDS011;62333;51.980;5.934;2023-11-19T06:50:31;32.13;;;7.63;;
38479;SDS011;62333;51.980;5.934;2023-11-19T06:52:57;23.73;;;4.82;;
38479;SDS011;62333;51.980;5.934;2023-11-19T06:55:23;25.75;;;5.00;;
38479;SDS011;62333;51.980;5.934;2023-11-19T06:57:48;33.08;;;6.63;;
38479;SDS011;62333;51.980;5.934;2023-11-19T07:00:14;24.35;;;6.38;;
38479;SDS011;62333;51.980;5.934;2023-11-19T07:02:40;28.15;;;5.93;;
38479;SDS011;62333;51.980;5.934;2023-11-19T07:05:06;31.45;;;7.05;;
38479;SDS011;62333;51.980;5.934;2023-11-19T07:07:33;30.88;;;5.65;;
38479;SDS011;62333;51.980;5.934;2023-11-19T07:09:59;36.53;;;5.90;;
38479;SDS011;62333;51.980;5.934;2023-11-19T07:12:24;36.95;;;6.57;;
38479;SDS011;62333;51.980;5.934;2023-11-19T07:14:51;29.58;;;5.68;;
38479;SDS011;62333;51.980;5.934;2023-11-19T07:17:18;32.22;;;7.35;;
38479;SDS011;62333;51.980;5.934;2023-11-19T07:19:45;28.95;;;6.32;;
38479;SDS011;62333;51.980;5.934;2023-11-19T07:22:11;23.33;;;5.05;;
38479;SDS011;62333;51.980;5.934;2023-11-19T07:24:38;29.88;;;6.47;;
38479;SDS011;62333;51.980;5.934;2023-11-19T07:27:05;33.67;;;6.28;;
38479;SDS011;62333;51.980;5.934;2023-11-19T07:29:31;33.80;;;5.25;;
38479;SDS011;62333;51.980;5.934;2023-11-19T07:31:57;24.67;;;6.53;;
38479;SDS011;62333;51.980;5.934;2023-11-19T07:34:23;35.25;;;7.07;;
38479;SDS011;62333;51.980;5.934;2023-11-19T07:36:49;33.25;;;6.22;;
38479;SDS011;62333;51.980;5.934;2023-11-19T07:39:15;25.35;;;5.07;;
38479;SDS011;62333;51.980;5.934;2023-11-19T07:41:41;35.17;;;7.78;;
38479;SDS011;62333;51.980;5.934;2023-11-19T07:44:06;27.13;;;5.30;;
38479;SDS011;62333;51.980;5.934;2023-11-19T07:46:32;27.20;;;5.32;;
38479;SDS011;62333;51.980;5.934;2023-11-19T07:48:58;24.05;;;6.32;;
38479;SDS011;62333;51.980;5.934;2023-11-19T07:51:23;29.10;;;4.40;;
38479;SDS011;62333;51.980;5.934;2023-11-19T07:53:50;35.90;;;7.03;;
38479;SDS011;62333;51.980;5.934;2023-11-19T07:56:16;24.40;;;5.18;;
38479;SDS011;62333;51.980;5.934;2023-11-19T07:58:41;24.10;;;6.70;;
38479;SDS011;62333;51.980;5.934;2023-11-19T08:01:07;35.63;;;5.80;;
38479;SDS011;62333;51.980;5.934;2023-11-19T08:03:33;26.33;;;4.60;;
38479;SDS011;62333;51.980;5.934;2023-11-19T08:05:59;26.45;;;4.57;;
38479;SDS011;62333;51.980;5.934;2023-11-19T08:08:26;25.63;;;4.70;;
38479;SDS011;62333;51.980;5.934;2023-11-19T08:10:52;29.48;;;5.85;;
38479;SDS011;62333;51.980;5.934;2023-11-19T08:13:18;35.85;;;6.95;;
38479;SDS011;62333;51.980;5.934;2023-11-19T08:15:45;30.10;;;6.97;;
38479;SDS011;62333;51.980;5.934;2023-11-19T08:18:11;31.00;;;5.40;;
38479;SDS011;62333;51.980;5.934;2023-11-19T08:21:08;25.27;;;3.78;;
38479;SDS011;62333;51.980;5.934;2023-11-19T08:23:35;28.63;;;4.75;;
38479;SDS011;62333;51.980;5.934;2023-11-19T08:26:01;27.83;;;5.50;;
38479;SDS011;62333;51.980;5.934;2023-11-19T08:28:28;25.40;;;5.75;;
38479;SDS011;62333;51.980;5.934;2023-11-19T08:30:53;39.05;;;6.55;;
38479;SDS011;62333;51.980;5.934;2023-11-19T08:33:19;38.20;;;7.95;;
38479;SDS011;62333;51.980;5.934;2023-11-19T08:35:47;28.98;;;5.18;;
38479;SDS011;62333;51.980;5.934;2023-11-19T08:38:13;30.98;;;8.15;;
38479;SDS011;62333;51.980;5.934;2023-11-19T08:40:39;22.17;;;4.10;;
38479;SDS011;62333;51.980;5.934;2023-11-19T08:43:04;24.88;;;4.90;;
38479;SDS011;62333;51.980;5.934;2023-11-19T08:45:31;23.83;;;6.90;;
38479;SDS011;62333;51.980;5.934;2023-11-19T08:47:57;28.17;;;6.57;;
38479;SDS011;62333;51.980;5.934;2023-11-19T08:50:22;27.30;;;4.47;;
38479;SDS011;62333;51.980;5.934;2023-11-19T08:52:49;37.50;;;6.40;;
38479;SDS011;62333;51.980;5.934;2023-11-19T08:55:14;41.28;;;8.35;;
38479;SDS011;62333;51.980;5.934;2023-11-19T08:57:40;29.77;;;4.95;;
38479;SDS011;62333;51.980;5.934;2023-11-19T09:00:06;27.38;;;6.50;;
38479;SDS011;62333;51.980;5.934;2023-11-19T09:02:33;26.83;;;6.03;;
38479;SDS011;62333;51.980;5.934;2023-11-19T09:05:02;22.52;;;5.35;;
38479;SDS011;62333;51.980;5.934;2023-11-19T09:07:28;23.83;;;4.72;;
38479;SDS011;62333;51.980;5.934;2023-11-19T09:09:54;23.33;;;4.38;;
38479;SDS011;62333;51.980;5.934;2023-11-19T09:12:20;22.98;;;5.68;;
38479;SDS011;62333;51.980;5.934;2023-11-19T09:14:45;22.85;;;4.68;;
38479;SDS011;62333;51.980;5.934;2023-11-19T09:17:11;35.67;;;6.05;;
38479;SDS011;62333;51.980;5.934;2023-11-19T09:19:37;20.88;;;5.50;;
38479;SDS011;62333;51.980;5.934;2023-11-19T09:22:02;25.85;;;6.88;;
38479;SDS011;62333;51.980;5.934;2023-11-19T09:24:28;28.40;;;5.55;;
38479;SDS011;62333;51.980;5.934;2023-11-19T09:26:54;24.95;;;7.78;;
38479;SDS011;62333;51.980;5.934;2023-11-19T09:29:21;30.85;;;5.15;;
38479;SDS011;62333;51.980;5.934;2023-11-19T09:31:47;31.80;;;5.72;;
38479;SDS011;62333;51.980;5.934;2023-11-19T09:34:12;24.73;;;4.32;;
38479;SDS011;62333;51.980;5.934;2023-11-19T09:36:38;25.42;;;5.13;;
38479;SDS011;62333;51.980;5.934;2023-11-19T09:39:08;30.02;;;5.57;;
38479;SDS011;62333;51.980;5.934;2023-11-19T09:41:42;38.38;;;5.65;;
38479;SDS011;62333;51.980;5.934;2023-11-19T09:44:10;24.70;;;5.32;;
38479;SDS011;62333;51.980;5.934;2023-11-19T09:46:36;32.35;;;4.30;;
38479;SDS011;62333;51.980;5.934;2023-11-19T09:49:06;26.77;;;5.40;;
38479;SDS011;62333;51.980;5.934;2023-11-19T09:51:35;28.08;;;5.85;;
38479;SDS011;62333;51.980;5.934;2023-11-19T09:54:01;39.22;;;5.47;;
38479;SDS011;62333;51.980;5.934;2023-11-19T09:56:30;22.73;;;4.55;;
38479;SDS011;62333;51.980;5.934;2023-11-19T09:58:58;27.50;;;6.90;;
38479;SDS011;62333;51.980;5.934;2023-11-19T10:01:24;19.40;;;4.22;;
38479;SDS011;62333;51.980;5.934;2023-11-19T10:03:50;20.27;;;4.38;;
38479;SDS011;62333;51.980;5.934;2023-11-19T10:06:20;24.10;;;5.10;;
38479;SDS011;62333;51.980;5.934;2023-11-19T10:08:46;22.92;;;4.28;;
38479;SDS011;62333;51.980;5.934;2023-11-19T10:11:12;19.17;;;3.83;;
38479;SDS011;62333;51.980;5.934;2023-11-19T10:13:38;28.13;;;6.10;;
38479;SDS011;62333;51.980;5.934;2023-11-19T10:16:06;23.05;;;3.97;;
38479;SDS011;62333;51.980;5.934;2023-11-19T10:18:33;29.15;;;4.93;;
38479;SDS011;62333;51.980;5.934;2023-11-19T10:21:06;23.83;;;4.60;;
38479;SDS011;62333;51.980;5.934;2023-11-19T10:23:47;39.10;;;6.50;;
38479;SDS011;62333;51.980;5.934;2023-11-19T10:26:15;34.72;;;7.05;;
38479;SDS011;62333;51.980;5.934;2023-11-19T10:28:40;31.02;;;5.95;;
38479;SDS011;62333;51.980;5.934;2023-11-19T10:31:11;30.40;;;6.53;;
38479;SDS011;62333;51.980;5.934;2023-11-19T10:33:40;29.02;;;6.88;;
38479;SDS011;62333;51.980;5.934;2023-11-19T10:36:06;24.05;;;5.20;;
38479;SDS011;62333;51.980;5.934;2023-11-19T10:38:32;30.15;;;6.32;;
38479;SDS011;62333;51.980;5.934;2023-11-19T10:40:58;24.45;;;5.93;;
38479;SDS011;62333;51.980;5.934;2023-11-19T10:43:24;34.20;;;5.97;;
38479;SDS011;62333;51.980;5.934;2023-11-19T10:45:50;35.72;;;6.45;;
38479;SDS011;62333;51.980;5.934;2023-11-19T10:48:17;32.88;;;8.02;;
38479;SDS011;62333;51.980;5.934;2023-11-19T10:50:43;26.40;;;4.18;;
38479;SDS011;62333;51.980;5.934;2023-11-19T10:53:11;21.90;;;4.22;;
38479;SDS011;62333;51.980;5.934;2023-11-19T10:55:43;23.67;;;4.82;;
38479;SDS011;62333;51.980;5.934;2023-11-19T10:58:12;29.95;;;4.93;;
38479;SDS011;62333;51.980;5.934;2023-11-19T11:00:46;33.40;;;6.30;;
38479;SDS011;62333;51.980;5.934;2023-11-19T11:03:16;25.42;;;7.32;;
38479;SDS011;62333;51.980;5.934;2023-11-19T11:05:47;19.92;;;3.72;;
38479;SDS011;62333;51.980;5.934;2023-11-19T11:08:14;26.05;;;5.40;;
38479;SDS011;62333;51.980;5.934;2023-11-19T11:10:42;20.27;;;5.15;;
38479;SDS011;62333;51.980;5.934;2023-11-19T11:13:09;24.75;;;5.00;;
38479;SDS011;62333;51.980;5.934;2023-11-19T11:15:37;23.95;;;5.97;;
38479;SDS011;62333;51.980;5.934;2023-11-19T11:18:03;21.55;;;3.90;;
38479;SDS011;62333;51.980;5.934;2023-11-19T11:20:33;21.92;;;4.38;;
38479;SDS011;62333;51.980;5.934;2023-11-19T11:36:45;29.60;;;5.88;;
38479;SDS011;62333;51.980;5.934;2023-11-19T11:39:33;24.58;;;5.28;;
38479;SDS011;62333;51.980;5.934;2023-11-19T11:47:25;34.70;;;8.18;;
38479;SDS011;62333;51.980;5.934;2023-11-19T11:49:51;29.98;;;4.90;;
38479;SDS011;62333;51.980;5.934;2023-11-19T11:52:18;24.52;;;4.47;;
38479;SDS011;62333;51.980;5.934;2023-11-19T11:54:44;20.10;;;4.47;;
38479;SDS011;62333;51.980;5.934;2023-11-19T11:57:12;20.45;;;3.58;;
38479;SDS011;62333;51.980;5.934;2023-11-19T12:02:07;28.95;;;4.97;;
38479;SDS011;62333;51.980;5.934;2023-11-19T12:04:37;24.23;;;3.67;;
38479;SDS011;62333;51.980;5.934;2023-11-19T12:07:08;18.65;;;4.18;;
38479;SDS011;62333;51.980;5.934;2023-11-19T12:09:42;21.17;;;4.68;;
38479;SDS011;62333;51.980;5.934;2023-11-19T12:15:04;33.67;;;5.65;;
38479;SDS011;62333;51.980;5.934;2023-11-19T12:20:00;23.35;;;4.60;;
38479;SDS011;62333;51.980;5.934;2023-11-19T12:22:26;28.80;;;5.15;;
38479;SDS011;62333;51.980;5.934;2023-11-19T12:24:53;17.00;;;3.80;;
38479;SDS011;62333;51.980;5.934;2023-11-19T12:27:19;16.08;;;3.13;;
38479;SDS011;62333;51.980;5.934;2023-11-19T12:29:47;14.52;;;1.75;;
38479;SDS011;62333;51.980;5.934;2023-11-19T12:32:13;17.08;;;2.63;;
38479;SDS011;62333;51.980;5.934;2023-11-19T12:34:39;19.52;;;4.55;;
38479;SDS011;62333;51.980;5.934;2023-11-19T12:37:05;21.98;;;4.53;;
38479;SDS011;62333;51.980;5.934;2023-11-19T12:39:31;15.82;;;2.63;;
38479;SDS011;62333;51.980;5.934;2023-11-19T12:41:57;22.60;;;5.03;;
38479;SDS011;62333;51.980;5.934;2023-11-19T12:44:25;17.95;;;3.15;;
38479;SDS011;62333;51.980;5.934;2023-11-19T12:47:01;16.27;;;3.83;;
38479;SDS011;62333;51.980;5.934;2023-11-19T12:49:28;14.68;;;3.63;;
38479;SDS011;62333;51.980;5.934;2023-11-19T12:51:53;20.25;;;3.72;;
38479;SDS011;62333;51.980;5.934;2023-11-19T12:54:19;14.05;;;3.05;;
38479;SDS011;62333;51.980;5.934;2023-11-19T12:56:51;18.63;;;3.92;;
38479;SDS011;62333;51.980;5.934;2023-11-19T12:59:18;18.33;;;3.95;;
38479;SDS011;62333;51.980;5.934;2023-11-19T13:01:57;16.75;;;3.08;;
38479;SDS011;62333;51.980;5.934;2023-11-19T13:04:23;14.27;;;2.53;;
38479;SDS011;62333;51.980;5.934;2023-11-19T13:06:52;14.93;;;2.50;;
38479;SDS011;62333;51.980;5.934;2023-11-19T13:09:21;12.52;;;2.45;;
38479;SDS011;62333;51.980;5.934;2023-11-19T13:11:48;15.50;;;2.25;;
38479;SDS011;62333;51.980;5.934;2023-11-19T13:14:13;15.68;;;3.50;;
38479;SDS011;62333;51.980;5.934;2023-11-19T13:16:39;20.13;;;3.47;;
38479;SDS011;62333;51.980;5.934;2023-11-19T13:19:05;16.55;;;2.75;;
38479;SDS011;62333;51.980;5.934;2023-11-19T13:21:31;23.85;;;3.90;;
38479;SDS011;62333;51.980;5.934;2023-11-19T13:23:57;12.23;;;1.95;;
38479;SDS011;62333;51.980;5.934;2023-11-19T13:26:23;24.20;;;3.13;;
38479;SDS011;62333;51.980;5.934;2023-11-19T13:28:48;14.80;;;2.88;;
38479;SDS011;62333;51.980;5.934;2023-11-19T13:31:14;23.55;;;4.60;;
38479;SDS011;62333;51.980;5.934;2023-11-19T13:33:40;19.15;;;3.70;;
38479;SDS011;62333;51.980;5.934;2023-11-19T13:36:06;19.20;;;3.90;;
38479;SDS011;62333;51.980;5.934;2023-11-19T13:38:36;18.95;;;3.60;;
38479;SDS011;62333;51.980;5.934;2023-11-19T13:41:04;15.30;;;3.58;;
38479;SDS011;62333;51.980;5.934;2023-11-19T13:43:30;15.93;;;3.22;;
38479;SDS011;62333;51.980;5.934;2023-11-19T13:45:56;21.15;;;4.60;;
38479;SDS011;62333;51.980;5.934;2023-11-19T13:48:25;18.50;;;3.50;;
38479;SDS011;62333;51.980;5.934;2023-11-19T13:50:52;16.33;;;3.40;;
38479;SDS011;62333;51.980;5.934;2023-11-19T13:53:18;15.18;;;2.85;;
38479;SDS011;62333;51.980;5.934;2023-11-19T13:55:44;21.75;;;5.28;;
38479;SDS011;62333;51.980;5.934;2023-11-19T13:58:10;17.25;;;4.03;;
38479;SDS011;62333;51.980;5.934;2023-11-19T14:00:36;22.17;;;4.13;;
38479;SDS011;62333;51.980;5.934;2023-11-19T14:03:02;18.42;;;3.03;;
38479;SDS011;62333;51.980;5.934;2023-11-19T14:05:28;14.85;;;2.88;;
38479;SDS011;62333;51.980;5.934;2023-11-19T14:07:53;14.65;;;2.78;;
38479;SDS011;62333;51.980;5.934;2023-11-19T14:10:21;12.13;;;2.78;;
38479;SDS011;62333;51.980;5.934;2023-11-19T14:12:47;26.65;;;5.00;;
38479;SDS011;62333;51.980;5.934;2023-11-19T14:15:14;21.73;;;3.58;;
38479;SDS011;62333;51.980;5.934;2023-11-19T14:17:42;18.27;;;2.40;;
38479;SDS011;62333;51.980;5.934;2023-11-19T14:20:08;17.30;;;2.65;;
38479;SDS011;62333;51.980;5.934;2023-11-19T14:22:43;28.63;;;3.38;;
38479;SDS011;62333;51.980;5.934;2023-11-19T14:25:13;18.88;;;3.67;;
38479;SDS011;62333;51.980;5.934;2023-11-19T14:27:39;16.92;;;3.33;;
38479;SDS011;62333;51.980;5.934;2023-11-19T14:30:05;15.75;;;2.65;;
38479;SDS011;62333;51.980;5.934;2023-11-19T14:32:32;22.42;;;3.63;;
38479;SDS011;62333;51.980;5.934;2023-11-19T14:34:58;12.02;;;2.22;;
38479;SDS011;62333;51.980;5.934;2023-11-19T14:37:23;26.48;;;5.53;;
38479;SDS011;62333;51.980;5.934;2023-11-19T14:39:49;22.58;;;4.80;;
38479;SDS011;62333;51.980;5.934;2023-11-19T14:42:16;18.77;;;3.13;;
38479;SDS011;62333;51.980;5.934;2023-11-19T14:44:42;15.52;;;2.75;;
38479;SDS011;62333;51.980;5.934;2023-11-19T14:47:08;22.63;;;5.03;;
38479;SDS011;62333;51.980;5.934;2023-11-19T14:49:37;26.73;;;3.75;;
38479;SDS011;62333;51.980;5.934;2023-11-19T14:52:05;17.95;;;3.13;;
38479;SDS011;62333;51.980;5.934;2023-11-19T14:54:31;14.95;;;3.38;;
38479;SDS011;62333;51.980;5.934;2023-11-19T14:56:57;17.10;;;3.40;;
38479;SDS011;62333;51.980;5.934;2023-11-19T14:59:24;16.65;;;2.22;;
38479;SDS011;62333;51.980;5.934;2023-11-19T15:01:49;15.27;;;2.58;;